RJDM(METAR)
02/18 15:00
METAR RJDM 180600Z VRB01KT 9999 FEW040 SCT050 BKN100 11/M04 Q1023
RMK 1CU040 4SC050 7AC100 A3021=
戻る
トップページへ戻る
IMOC Co,.Ltd.